createdAt,value
2023-04-07T00:06:50.853Z,7.50
2023-04-07T00:10:23.575Z,7.80
2023-04-07T00:13:54.936Z,8.90
2023-04-07T00:17:25.167Z,8.20
2023-04-07T00:20:56.492Z,7.00
2023-04-07T00:24:34.660Z,9.20
2023-04-07T00:42:57.778Z,12.30
2023-04-07T00:46:33.326Z,13.50
2023-04-07T00:50:06.142Z,7.90
2023-04-07T00:53:35.643Z,9.90
2023-04-07T01:12:24.591Z,13.30
2023-04-07T01:15:55.273Z,12.90
2023-04-07T01:24:00.545Z,12.40
2023-04-07T01:34:58.382Z,8.70
2023-04-07T01:38:38.951Z,7.80
2023-04-07T01:42:14.934Z,9.30
2023-04-07T01:45:45.205Z,8.10
2023-04-07T01:49:26.485Z,8.20
2023-04-07T01:53:15.210Z,9.30
2023-04-07T02:00:53.282Z,9.70
2023-04-07T02:12:56.983Z,10.10
2023-04-07T02:20:16.682Z,8.30
2023-04-07T02:23:48.548Z,9.20
2023-04-07T02:28:01.523Z,12.60
2023-04-07T02:30:47.215Z,9.30
2023-04-07T02:34:21.233Z,11.90
2023-04-07T02:37:53.154Z,10.20
2023-04-07T02:41:25.906Z,13.80
2023-04-07T02:45:04.026Z,11.30
2023-04-07T02:48:34.039Z,10.20
2023-04-07T02:52:12.646Z,10.80
2023-04-07T03:04:03.610Z,10.30
2023-04-07T03:31:49.814Z,9.80
2023-04-07T03:35:20.570Z,12.70
2023-04-07T03:39:03.934Z,13.70
2023-04-07T03:42:33.728Z,12.80
2023-04-07T04:01:07.293Z,16.80
2023-04-07T04:04:56.175Z,15.20
2023-04-07T04:16:42.217Z,18.80
2023-04-07T04:20:11.861Z,21.60
2023-04-07T04:24:19.141Z,18.30
2023-04-07T04:32:31.557Z,21.90
2023-04-07T04:36:01.773Z,17.10
2023-04-07T04:39:09.518Z,15.30
2023-04-07T04:43:12.586Z,18.70
2023-04-07T04:46:50.566Z,20.00
2023-04-07T04:50:31.554Z,18.00
2023-04-07T04:54:02.217Z,19.10
2023-04-07T04:57:07.822Z,19.70
2023-04-07T05:00:39.376Z,20.60
2023-04-07T05:04:07.317Z,19.30
2023-04-07T05:07:53.220Z,20.50
2023-04-07T05:11:32.976Z,21.40
2023-04-07T05:19:19.726Z,19.40
2023-04-07T05:23:05.270Z,20.30
2023-04-07T05:26:40.519Z,21.90
2023-04-07T05:30:11.919Z,13.30
2023-04-07T05:36:55.643Z,17.00
2023-04-07T05:40:50.280Z,20.30
2023-04-07T05:44:04.373Z,17.20
2023-04-07T05:47:22.604Z,15.60
2023-04-07T05:50:40.786Z,16.30
2023-04-07T05:53:51.832Z,16.40
2023-04-07T05:57:30.238Z,17.90
2023-04-07T06:01:18.058Z,17.50
2023-04-07T06:04:49.337Z,15.00
2023-04-07T06:08:19.366Z,22.10
2023-04-07T06:11:58.173Z,16.90
2023-04-07T06:15:30.963Z,15.50
2023-04-07T06:23:03.052Z,13.60
2023-04-07T06:34:06.267Z,17.50
2023-04-07T06:37:38.218Z,15.40
2023-04-07T06:41:14.169Z,18.60
2023-04-07T06:44:28.750Z,15.90
2023-04-07T06:48:01.987Z,16.30
2023-04-07T06:51:17.350Z,16.40
2023-04-07T06:54:46.669Z,18.50
2023-04-07T06:58:20.571Z,14.60
2023-04-07T07:01:56.158Z,17.50
2023-04-07T07:05:29.245Z,14.80
2023-04-07T07:09:03.687Z,18.50
2023-04-07T07:12:39.121Z,17.70
2023-04-07T07:16:09.636Z,14.20
2023-04-07T07:19:55.686Z,16.20
2023-04-07T07:23:26.181Z,16.90
2023-04-07T07:26:56.253Z,17.30
2023-04-07T07:30:30.498Z,18.20
2023-04-07T07:37:19.719Z,17.90
2023-04-07T07:40:49.315Z,17.40
2023-04-07T07:44:22.467Z,17.30
2023-04-07T07:47:59.860Z,11.70
2023-04-07T07:51:32.619Z,16.30
2023-04-07T07:54:23.897Z,14.70
2023-04-07T07:57:40.476Z,19.00
2023-04-07T08:04:56.433Z,14.90
2023-04-07T08:08:26.547Z,15.80
2023-04-07T08:11:56.607Z,14.90
2023-04-07T08:15:27.728Z,19.00
2023-04-07T08:19:02.560Z,18.60
2023-04-07T08:22:35.948Z,13.70
2023-04-07T08:26:07.058Z,14.30
2023-04-07T08:29:32.368Z,19.00
2023-04-07T08:33:02.207Z,13.90
2023-04-07T08:36:31.380Z,12.20
2023-04-07T08:40:00.892Z,14.40
2023-04-07T08:43:33.058Z,12.30
2023-04-07T08:47:02.708Z,11.00
2023-04-07T08:50:31.866Z,15.70
2023-04-07T08:54:04.399Z,15.80
2023-04-07T08:57:07.121Z,15.90
2023-04-07T09:00:40.193Z,15.90
2023-04-07T09:04:11.397Z,14.20
2023-04-07T09:07:41.139Z,14.90
2023-04-07T09:11:15.915Z,15.80
2023-04-07T09:14:45.543Z,17.40
2023-04-07T09:18:20.946Z,15.00
2023-04-07T09:21:56.797Z,14.70
2023-04-07T09:25:25.892Z,16.40
2023-04-07T09:28:56.067Z,14.80
2023-04-07T09:32:26.305Z,15.50
2023-04-07T09:35:37.435Z,13.50
2023-04-07T09:39:09.716Z,15.40
2023-04-07T09:42:11.777Z,11.80
2023-04-07T09:45:43.244Z,17.70
2023-04-07T09:49:22.872Z,16.90
2023-04-07T09:53:07.406Z,18.40
2023-04-07T09:56:45.764Z,14.90
2023-04-07T10:03:44.838Z,14.00
2023-04-07T10:11:02.795Z,15.00
2023-04-07T10:14:59.798Z,17.60
2023-04-07T10:18:32.766Z,18.60
2023-04-07T10:21:46.791Z,19.50
2023-04-07T10:25:41.355Z,20.60
2023-04-07T10:28:50.794Z,20.70
2023-04-07T10:32:32.725Z,21.80
2023-04-07T10:36:06.819Z,18.60
2023-04-07T10:39:48.398Z,17.10
2023-04-07T10:43:42.316Z,18.30
2023-04-07T10:47:48.828Z,17.20
2023-04-07T10:51:26.330Z,15.80
2023-04-07T10:59:38.297Z,16.60
2023-04-07T11:07:01.821Z,16.70
2023-04-07T11:10:03.138Z,18.40
2023-04-07T11:13:10.587Z,15.70
2023-04-07T11:16:25.027Z,17.80
2023-04-07T11:19:43.787Z,15.10
2023-04-07T11:24:01.736Z,14.60
2023-04-07T11:27:17.778Z,12.90
2023-04-07T11:30:57.200Z,13.40
2023-04-07T11:34:05.701Z,11.70
2023-04-07T11:37:37.627Z,12.80
2023-04-07T11:44:04.357Z,14.20
2023-04-07T11:47:47.783Z,13.40
2023-04-07T11:51:21.707Z,14.20
2023-04-07T11:54:40.788Z,15.80
2023-04-07T11:58:13.557Z,16.10
2023-04-07T12:04:48.732Z,21.40
2023-04-07T12:08:11.658Z,19.00
2023-04-07T12:15:15.979Z,19.20
2023-04-07T12:22:08.404Z,20.50
2023-04-07T12:25:39.952Z,19.20
2023-04-07T12:29:08.419Z,22.40
2023-04-07T12:32:21.788Z,20.40
2023-04-07T12:36:03.843Z,27.10
2023-04-07T12:39:49.777Z,24.20
2023-04-07T12:43:14.779Z,22.30
2023-04-07T12:53:51.003Z,24.60
2023-04-07T12:57:14.717Z,28.30
2023-04-07T13:00:57.279Z,28.70
2023-04-07T13:04:14.501Z,30.70
2023-04-07T13:08:39.631Z,27.90
2023-04-07T13:12:05.283Z,31.70
2023-04-07T13:16:04.414Z,34.00
2023-04-07T13:36:50.519Z,36.20
2023-04-07T13:40:19.322Z,34.70
2023-04-07T13:43:52.304Z,30.30
2023-04-07T13:47:12.150Z,27.60
2023-04-07T13:50:29.711Z,29.90
2023-04-07T13:53:47.894Z,30.40
2023-04-07T13:57:15.561Z,25.50
2023-04-07T14:00:36.271Z,25.60
2023-04-07T14:07:28.399Z,27.20
2023-04-07T14:11:05.709Z,26.00
2023-04-07T14:14:44.331Z,26.50
2023-04-07T14:18:42.271Z,25.40
2023-04-07T14:22:13.777Z,22.60
2023-04-07T14:25:46.478Z,24.00
2023-04-07T14:29:01.771Z,25.20
2023-04-07T14:32:05.725Z,23.40
2023-04-07T14:35:16.230Z,24.10
2023-04-07T14:46:25.784Z,24.00
2023-04-07T14:52:32.728Z,31.60
2023-04-07T14:56:23.699Z,23.40
2023-04-07T15:00:08.148Z,27.50
2023-04-07T15:03:51.478Z,28.10
2023-04-07T15:06:56.667Z,27.80
2023-04-07T15:09:55.822Z,28.10
2023-04-07T15:21:08.815Z,27.80
2023-04-07T15:25:06.716Z,29.30
2023-04-07T15:28:44.704Z,33.70
2023-04-07T15:39:14.298Z,33.10
2023-04-07T15:45:56.938Z,28.70
2023-04-07T15:49:36.346Z,30.60
2023-04-07T15:53:11.508Z,28.30
2023-04-07T16:00:31.526Z,28.30
2023-04-07T16:04:02.002Z,32.90
2023-04-07T16:18:31.609Z,46.60
2023-04-07T16:22:13.189Z,35.60
2023-04-07T16:29:08.155Z,31.70
2023-04-07T16:32:44.568Z,29.40
2023-04-07T16:36:03.550Z,29.80
2023-04-07T16:39:13.041Z,29.90
2023-04-07T16:43:25.743Z,38.90
2023-04-07T16:47:05.466Z,36.30
2023-04-07T16:50:16.517Z,38.70
2023-04-07T16:58:07.359Z,34.90
2023-04-07T17:01:33.880Z,30.20
2023-04-07T17:05:05.537Z,31.80
2023-04-07T17:08:37.262Z,31.00
2023-04-07T17:12:07.241Z,33.70
2023-04-07T17:15:35.913Z,34.70
2023-04-07T17:19:07.408Z,35.30
2023-04-07T17:22:50.042Z,30.00
2023-04-07T17:30:14.069Z,37.40
2023-04-07T17:33:45.657Z,36.90
2023-04-07T17:37:13.985Z,37.90
2023-04-07T17:40:46.944Z,37.20
2023-04-07T17:48:20.291Z,35.20
2023-04-07T17:51:49.490Z,26.30
2023-04-07T18:06:43.020Z,34.00
2023-04-07T18:10:33.550Z,29.20
2023-04-07T18:14:10.868Z,34.00
2023-04-07T18:47:30.430Z,39.90
2023-04-07T18:59:23.848Z,36.10
2023-04-07T19:02:56.026Z,36.30
2023-04-07T19:06:32.083Z,34.10
2023-04-07T19:13:11.703Z,40.40
2023-04-07T19:16:44.532Z,36.90
2023-04-07T19:20:15.124Z,40.60
2023-04-07T19:23:48.368Z,39.60
2023-04-07T19:27:34.033Z,41.70
2023-04-07T19:31:21.368Z,40.00
2023-04-07T19:34:28.478Z,36.70
2023-04-07T19:38:33.228Z,37.70
2023-04-07T19:58:16.235Z,56.60
2023-04-07T20:02:00.595Z,43.10
2023-04-07T20:04:53.482Z,45.60
2023-04-07T20:08:37.529Z,47.50
2023-04-07T20:12:10.027Z,43.60
2023-04-07T20:15:48.304Z,40.20
2023-04-07T20:18:32.485Z,72.50
2023-04-07T20:22:05.046Z,46.90
2023-04-07T20:25:47.210Z,51.00
2023-04-07T20:28:58.486Z,55.30
